Time;durP1;ratioP1;P1;durP2;ratioP2;P2;SDS_P1;SDS_P2;PMS_P1;PMS_P2;Temp;Humidity;BMP_temperature;BMP_pressure;BME280_temperature;BME280_humidity;BME280_pressure;Samples;Min_cycle;Max_cycle;Signal;HPM_P1;HPM_P2
2022/06/10 00:00:52;;;;;;;20.10;13.70;;;;;;;16.08;99.98;99782.86;105200;1268;74378;-65
2022/06/10 00:03:40;;;;;;;19.00;13.90;;;;;;;16.09;100.00;99789.55;105113;1267;59786;-65
2022/06/10 00:06:26;;;;;;;18.90;13.90;;;;;;;16.09;100.00;99791.35;105106;1268;60255;-66
2022/06/10 00:09:12;;;;;;;19.70;14.10;;;;;;;16.09;100.00;99791.36;105273;1265;74151;-67
2022/06/10 00:11:59;;;;;;;17.90;13.30;;;;;;;16.10;100.00;99790.56;105255;1265;68440;-65
2022/06/10 00:14:46;;;;;;;16.70;12.00;;;;;;;16.10;100.00;99789.42;105121;1265;74306;-68
2022/06/10 00:17:34;;;;;;;18.30;13.10;;;;;;;16.10;99.99;99786.63;105264;1265;59806;-70
2022/06/10 00:20:24;;;;;;;19.50;13.70;;;;;;;16.08;99.94;99784.55;105225;1265;59742;-66
2022/06/10 00:23:12;;;;;;;19.30;13.70;;;;;;;16.08;100.00;99785.22;105671;1265;71862;-67
2022/06/10 00:25:59;;;;;;;20.10;14.10;;;;;;;16.09;100.00;99785.95;105257;1265;69833;-66
2022/06/10 00:28:45;;;;;;;18.70;13.30;;;;;;;16.10;100.00;99787.85;105727;1265;73546;-68
2022/06/10 00:31:32;;;;;;;19.00;13.50;;;;;;;16.11;100.00;99786.30;105261;1266;61473;-67
2022/06/10 00:34:19;;;;;;;18.30;13.50;;;;;;;16.11;99.99;99786.81;105236;1265;60445;-65
2022/06/10 00:37:08;;;;;;;18.00;13.30;;;;;;;16.14;100.00;99789.77;105464;1265;73123;-65
2022/06/10 00:39:55;;;;;;;19.30;13.60;;;;;;;16.15;100.00;99789.10;105422;1265;66974;-64
2022/06/10 00:42:42;;;;;;;18.80;13.00;;;;;;;16.17;100.00;99794.08;105403;1265;73304;-66
2022/06/10 00:46:26;;;;;;;18.60;13.50;;;;;;;16.15;99.88;99793.40;105422;1265;60287;-65
2022/06/10 00:49:15;;;;;;;21.00;13.20;;;;;;;16.14;99.86;99796.41;105313;1265;59731;-65
2022/06/10 00:52:01;;;;;;;18.10;13.20;;;;;;;16.13;99.97;99795.06;105100;1265;74688;-69
2022/06/10 00:54:51;;;;;;;19.30;12.70;;;;;;;16.14;99.99;99795.44;105302;1265;66841;-65
2022/06/10 00:57:44;;;;;;;17.60;12.50;;;;;;;16.17;99.99;99796.73;105438;1265;74666;-69
2022/06/10 01:00:31;;;;;;;15.40;11.10;;;;;;;16.22;99.71;99801.10;105481;1265;59832;-66
2022/06/10 01:03:18;;;;;;;18.00;12.20;;;;;;;16.25;99.23;99797.33;105277;1265;59633;-63
2022/06/10 01:06:05;;;;;;;16.30;11.10;;;;;;;16.28;98.73;99799.70;105434;1265;73543;-68
2022/06/10 01:08:54;;;;;;;15.30;11.20;;;;;;;16.30;98.32;99804.89;105329;1265;69893;-64
2022/06/10 01:12:13;;;;;;;14.80;10.90;;;;;;;16.29;97.97;99802.33;105136;1265;74429;-68
2022/06/10 01:15:39;;;;;;;15.40;10.50;;;;;;;16.29;98.02;99802.91;105151;1265;61277;-63
2022/06/10 01:18:37;;;;;;;14.70;10.30;;;;;;;16.30;97.95;99801.66;105391;1265;62182;-64
2022/06/10 01:22:05;;;;;;;15.50;10.30;;;;;;;16.33;98.10;99805.79;105167;1265;73568;-63
2022/06/10 01:25:10;;;;;;;16.40;10.80;;;;;;;16.34;97.59;99808.77;105475;1265;69413;-64
2022/06/10 01:28:23;;;;;;;16.20;10.90;;;;;;;16.32;97.45;99803.08;105198;1265;73432;-66
2022/06/10 01:31:31;;;;;;;17.00;12.30;;;;;;;16.30;97.47;99799.65;105394;1265;59672;-65
2022/06/10 01:34:37;;;;;;;16.90;11.20;;;;;;;16.30;97.48;99800.27;105256;1265;60512;-67
2022/06/10 01:37:47;;;;;;;15.80;10.80;;;;;;;16.30;97.53;99804.70;105301;1265;74043;-66
2022/06/10 01:40:36;;;;;;;15.10;10.40;;;;;;;16.31;97.44;99803.55;105342;1265;69967;-67
2022/06/10 01:43:49;;;;;;;15.80;10.50;;;;;;;16.33;97.62;99800.94;105238;1265;74306;-67
2022/06/10 01:47:00;;;;;;;16.30;10.80;;;;;;;16.35;97.31;99800.08;105476;1265;59643;-66
2022/06/10 01:49:58;;;;;;;13.30;9.20;;;;;;;16.37;97.19;99807.42;105076;1265;60554;-67
2022/06/10 01:53:04;;;;;;;17.10;10.40;;;;;;;16.35;96.85;99810.48;105176;1265;73434;-66
2022/06/10 01:56:10;;;;;;;17.30;10.60;;;;;;;16.33;96.89;99814.70;105223;1265;69590;-66
2022/06/10 01:59:12;;;;;;;14.70;10.10;;;;;;;16.32;97.02;99810.61;105500;1265;74367;-66
2022/06/10 02:02:06;;;;;;;16.00;10.40;;;;;;;16.30;96.92;99808.82;105139;1265;61334;-65
2022/06/10 02:05:16;;;;;;;15.30;9.90;;;;;;;16.28;97.10;99816.16;105354;1265;59683;-69
2022/06/10 02:08:44;;;;;;;15.00;10.60;;;;;;;16.26;97.20;99819.25;105423;1265;73898;-68
2022/06/10 02:11:33;;;;;;;14.60;10.30;;;;;;;16.26;97.13;99821.79;104805;1271;68621;-69
2022/06/10 02:14:37;;;;;;;17.50;11.10;;;;;;;16.25;97.08;99826.69;104797;1271;72318;-70
2022/06/10 02:17:30;;;;;;;12.60;8.30;;;;;;;16.24;97.26;99827.70;104750;1272;59885;-69
2022/06/10 02:20:25;;;;;;;17.70;12.20;;;;;;;16.22;97.69;99828.46;104707;1273;59615;-68
2022/06/10 02:23:16;;;;;;;17.40;12.30;;;;;;;16.20;98.12;99825.46;104908;1274;73688;-66
2022/06/10 02:26:05;;;;;;;18.10;13.00;;;;;;;16.19;98.63;99833.98;104937;1272;67907;-67
2022/06/10 02:28:55;;;;;;;17.40;12.70;;;;;;;16.17;99.19;99837.06;104673;1274;73888;-63
2022/06/10 02:31:51;;;;;;;20.30;13.50;;;;;;;16.13;99.74;99841.73;104771;1273;60056;-68
2022/06/10 02:34:38;;;;;;;17.70;12.80;;;;;;;16.12;100.00;99843.14;104592;1273;60012;-66
2022/06/10 02:38:12;;;;;;;20.30;13.90;;;;;;;16.09;100.00;99845.00;104770;1273;74719;-65
2022/06/10 02:41:09;;;;;;;21.90;15.40;;;;;;;16.05;100.00;99844.55;104705;1273;67603;-64
2022/06/10 02:44:15;;;;;;;22.90;15.20;;;;;;;16.03;100.00;99844.78;104758;1273;73253;-64
2022/06/10 02:47:48;;;;;;;24.30;16.80;;;;;;;15.99;100.00;99845.38;104727;1268;59777;-67
2022/06/10 02:50:35;;;;;;;22.40;15.40;;;;;;;15.95;100.00;99845.23;105319;1265;59595;-68
2022/06/10 02:53:22;;;;;;;26.10;17.40;;;;;;;15.91;100.00;99846.06;105492;1265;73668;-66
2022/06/10 02:56:22;;;;;;;26.00;17.80;;;;;;;15.87;100.00;99847.47;105265;1265;70618;-66
2022/06/10 03:02:32;;;;;;;26.90;18.30;;;;;;;15.79;100.00;99841.86;105256;1265;61233;-65
2022/06/10 03:05:38;;;;;;;22.50;15.40;;;;;;;15.77;100.00;99842.59;105375;1265;60317;-66
2022/06/10 03:08:47;;;;;;;29.20;19.30;;;;;;;15.74;100.00;99842.89;105397;1268;73546;-64
2022/06/10 03:12:26;;;;;;;28.60;18.90;;;;;;;15.73;100.00;99840.19;105101;1268;68965;-66
2022/06/10 03:15:42;;;;;;;29.00;18.60;;;;;;;15.72;100.00;99846.33;105328;1265;73318;-66
2022/06/10 03:18:53;;;;;;;28.10;18.00;;;;;;;15.72;100.00;99841.99;105149;1265;59759;-68
2022/06/10 03:22:30;;;;;;;28.00;18.60;;;;;;;15.72;100.00;99843.41;105346;1265;59656;-68
2022/06/10 03:25:30;;;;;;;24.50;15.60;;;;;;;15.74;100.00;99849.35;105375;1268;73478;-67
2022/06/10 03:28:44;;;;;;;31.40;19.50;;;;;;;15.71;100.00;99841.38;105181;1265;68601;-69
2022/06/10 03:31:58;;;;;;;31.60;19.50;;;;;;;15.69;100.00;99848.81;105420;1267;73479;-68
2022/06/10 03:34:53;;;;;;;32.00;19.60;;;;;;;15.68;100.00;99852.08;105223;1268;59685;-70
2022/06/10 03:37:41;;;;;;;33.20;21.20;;;;;;;15.67;100.00;99863.65;105770;1269;60365;-67
2022/06/10 03:40:30;;;;;;;29.50;18.50;;;;;;;15.65;100.00;99869.14;105286;1265;74612;-66
2022/06/10 03:43:17;;;;;;;28.00;17.60;;;;;;;15.64;100.00;99874.50;105386;1268;68306;-71
2022/06/10 03:46:10;;;;;;;29.70;18.20;;;;;;;15.62;100.00;99876.33;105475;1262;73275;-66
2022/06/10 03:48:58;;;;;;;30.90;19.30;;;;;;;15.61;100.00;99877.34;105229;1268;59814;-68
2022/06/10 03:51:46;;;;;;;32.30;18.50;;;;;;;15.60;100.00;99883.50;105323;1268;61595;-69
2022/06/10 03:54:32;;;;;;;32.20;19.90;;;;;;;15.56;100.00;99884.44;105274;1265;73800;-68
2022/06/10 03:57:19;;;;;;;28.90;18.10;;;;;;;15.54;100.00;99888.57;105077;1265;68489;-68
2022/06/10 04:00:07;;;;;;;30.50;18.50;;;;;;;15.54;100.00;99891.28;105142;1265;74407;-67
2022/06/10 04:03:04;;;;;;;28.00;17.10;;;;;;;15.54;100.00;99890.02;105121;1268;59730;-68
2022/06/10 04:05:51;;;;;;;33.40;19.40;;;;;;;15.56;100.00;99892.53;105324;1265;60262;-69
2022/06/10 04:08:58;;;;;;;34.10;19.50;;;;;;;15.58;100.00;99896.57;105201;1265;73632;-71
2022/06/10 04:11:51;;;;;;;29.30;17.30;;;;;;;15.60;100.00;99896.92;105042;1265;67881;-69
2022/06/10 04:14:38;;;;;;;32.20;19.00;;;;;;;15.62;100.00;99898.84;105131;1265;72686;-69
2022/06/10 04:17:25;;;;;;;33.10;19.40;;;;;;;15.62;100.00;99900.11;105241;1265;59879;-69
2022/06/10 04:20:24;;;;;;;37.20;21.80;;;;;;;15.61;100.00;99903.17;105241;1265;60469;-70
2022/06/10 04:23:13;;;;;;;38.50;21.30;;;;;;;15.62;100.00;99913.14;105258;1268;72361;-71
2022/06/10 04:25:59;;;;;;;37.70;22.00;;;;;;;15.61;100.00;99913.04;105207;1265;68062;-70
2022/06/10 04:28:47;;;;;;;33.70;20.50;;;;;;;15.60;100.00;99915.84;105108;1265;72872;-67
2022/06/10 04:31:37;;;;;;;36.80;21.30;;;;;;;15.58;100.00;99921.39;105205;1265;60860;-68
2022/06/10 04:34:24;;;;;;;36.70;22.10;;;;;;;15.57;100.00;99924.73;105142;1265;60769;-68
2022/06/10 04:37:11;;;;;;;33.60;20.10;;;;;;;15.56;100.00;99924.33;105152;1265;73731;-67
2022/06/10 04:39:57;;;;;;;38.30;23.30;;;;;;;15.56;100.00;99922.20;104818;1267;68263;-67
2022/06/10 04:42:47;;;;;;;37.90;21.70;;;;;;;15.55;100.00;99922.78;105191;1265;73643;-67
2022/06/10 04:45:48;;;;;;;36.20;21.50;;;;;;;15.54;100.00;99926.32;104952;1271;59698;-68
2022/06/10 04:48:35;;;;;;;38.30;21.90;;;;;;;15.52;100.00;99928.46;105354;1265;60272;-66
2022/06/10 04:51:23;;;;;;;40.60;24.10;;;;;;;15.51;100.00;99931.76;105193;1265;72763;-66
2022/06/10 04:54:11;;;;;;;38.50;23.10;;;;;;;15.52;100.00;99939.36;105374;1265;68549;-64
2022/06/10 04:56:57;;;;;;;38.30;23.30;;;;;;;15.52;100.00;99939.18;105153;1265;72868;-66
2022/06/10 04:59:44;;;;;;;43.30;25.50;;;;;;;15.52;100.00;99941.36;105263;1265;60302;-68
2022/06/10 05:02:31;;;;;;;38.80;23.90;;;;;;;15.49;100.00;99942.45;105215;1265;61958;-69
2022/06/10 05:05:18;;;;;;;37.30;23.30;;;;;;;15.48;100.00;99939.41;105443;1265;74710;-68
2022/06/10 05:08:07;;;;;;;40.30;24.80;;;;;;;15.52;100.00;99947.46;105163;1265;68980;-68
2022/06/10 05:10:54;;;;;;;38.80;23.80;;;;;;;15.52;100.00;99951.74;105396;1265;73404;-68
2022/06/10 05:13:41;;;;;;;29.80;17.90;;;;;;;15.53;100.00;99952.46;105255;1265;61278;-66
2022/06/10 05:16:27;;;;;;;39.70;24.60;;;;;;;15.54;100.00;99956.69;105228;1264;59659;-63
2022/06/10 05:19:14;;;;;;;39.40;23.50;;;;;;;15.53;100.00;99960.69;105001;1265;324948;-65
2022/06/10 05:22:01;;;;;;;42.30;25.80;;;;;;;15.51;100.00;99961.97;105166;1265;68498;-65
2022/06/10 05:24:47;;;;;;;38.50;25.40;;;;;;;15.52;100.00;99963.02;105019;1265;73382;-68
2022/06/10 05:27:34;;;;;;;35.30;23.40;;;;;;;15.53;100.00;99967.52;105354;1265;59765;-67
2022/06/10 05:30:24;;;;;;;34.10;22.20;;;;;;;15.54;100.00;99969.73;105324;1265;59690;-61
2022/06/10 05:33:13;;;;;;;32.40;22.80;;;;;;;15.58;100.00;99964.88;105256;1265;74788;-65
2022/06/10 05:35:59;;;;;;;28.80;19.10;;;;;;;15.63;100.00;99967.08;105118;1265;69526;-65
2022/06/10 05:38:46;;;;;;;28.70;19.90;;;;;;;15.66;100.00;99971.59;105429;1265;74303;-68
2022/06/10 05:44:47;;;;;;;25.60;16.90;;;;;;;15.76;100.00;99976.86;105285;1265;61077;-72
2022/06/10 05:47:35;;;;;;;24.10;18.40;;;;;;;15.81;100.00;99981.73;104953;1269;73824;-73
2022/06/10 05:50:37;;;;;;;21.40;15.80;;;;;;;15.86;100.00;99985.84;105400;1265;67206;-67
2022/06/10 05:53:24;;;;;;;20.30;14.20;;;;;;;15.95;100.00;99989.03;105212;1265;74461;-69
2022/06/10 05:56:11;;;;;;;24.50;15.20;;;;;;;16.05;100.00;99994.54;105438;1265;59796;-69
2022/06/10 05:58:57;;;;;;;21.40;14.80;;;;;;;16.17;99.74;99996.19;105337;1265;60863;-75
2022/06/10 06:01:45;;;;;;;18.60;12.40;;;;;;;16.31;99.09;99999.77;105478;1265;72071;-73
2022/06/10 06:04:32;;;;;;;17.80;12.70;;;;;;;16.44;97.77;100005.00;105360;1265;66748;-71
2022/06/10 06:07:28;;;;;;;19.30;12.50;;;;;;;16.60;96.59;100006.79;105498;1265;74378;-74
2022/06/10 06:10:21;;;;;;;17.30;11.70;;;;;;;16.79;95.25;100002.73;105272;1265;60137;-69
2022/06/10 06:13:09;;;;;;;16.50;11.00;;;;;;;17.03;94.18;100007.11;105118;1265;60628;-75
2022/06/10 06:15:56;;;;;;;14.40;9.20;;;;;;;17.23;92.04;100016.48;105282;1265;74655;-76
2022/06/10 06:18:44;;;;;;;14.30;10.00;;;;;;;17.37;90.38;100013.41;105618;1265;67657;-74
2022/06/10 06:21:31;;;;;;;13.80;8.20;;;;;;;17.54;90.24;100017.18;105459;1265;73245;-75
2022/06/10 06:24:18;;;;;;;13.70;8.50;;;;;;;17.66;88.07;100014.95;105519;1265;59620;-71
2022/06/10 06:27:07;;;;;;;12.60;7.70;;;;;;;17.80;87.83;100016.50;105225;1265;61036;-71
2022/06/10 06:29:57;;;;;;;10.20;6.80;;;;;;;18.00;87.22;100018.19;105144;1265;73646;-66
2022/06/10 06:32:47;;;;;;;12.20;6.70;;;;;;;18.25;86.45;100020.89;105259;1265;69470;-74
2022/06/10 06:35:36;;;;;;;10.70;5.80;;;;;;;18.60;85.19;100025.27;105348;1265;72194;-73
2022/06/10 06:38:23;;;;;;;8.90;5.20;;;;;;;18.90;84.17;100024.72;105067;1268;59563;-70
2022/06/10 06:41:11;;;;;;;9.90;5.60;;;;;;;19.18;81.56;100028.58;105545;1265;60300;-70
2022/06/10 06:43:57;;;;;;;9.80;5.00;;;;;;;19.46;79.72;100030.59;105444;1265;72224;-75
2022/06/10 06:46:47;;;;;;;7.90;4.40;;;;;;;19.69;78.12;100029.52;105344;1265;68640;-72
2022/06/10 06:49:35;;;;;;;8.30;4.10;;;;;;;19.98;75.67;100030.07;105411;1265;73249;-68
2022/06/10 06:52:21;;;;;;;7.90;4.30;;;;;;;20.22;72.33;100029.98;105299;1265;60321;-70
2022/06/10 06:55:11;;;;;;;7.70;3.90;;;;;;;20.36;71.15;100031.55;105589;1265;60353;-77
2022/06/10 06:57:58;;;;;;;8.10;4.00;;;;;;;20.58;69.28;100032.13;105543;1265;72018;-75
2022/06/10 07:00:45;;;;;;;7.10;3.50;;;;;;;21.75;66.21;100031.11;105300;1265;66994;-74
2022/06/10 07:03:32;;;;;;;7.70;3.10;;;;;;;23.67;60.11;100026.77;105244;1265;73562;-74
2022/06/10 07:06:19;;;;;;;8.10;3.30;;;;;;;24.42;56.28;100025.84;105458;1265;59781;-69
2022/06/10 07:09:06;;;;;;;8.10;2.80;;;;;;;24.48;54.12;100027.59;105274;1264;60396;-71
2022/06/10 07:11:52;;;;;;;8.40;3.20;;;;;;;24.27;53.79;100038.45;105552;1265;73967;-71
2022/06/10 07:14:39;;;;;;;7.10;3.30;;;;;;;23.94;54.96;100034.55;105290;1265;69711;-73
2022/06/10 07:17:26;;;;;;;7.90;3.30;;;;;;;23.84;54.88;100041.85;105213;1265;73709;-65
2022/06/10 07:20:34;;;;;;;8.10;3.50;;;;;;;23.36;55.95;100041.82;105347;1265;59940;-74
2022/06/10 07:23:21;;;;;;;7.90;3.60;;;;;;;23.12;56.40;100045.72;105249;1265;61074;-75
2022/06/10 07:26:08;;;;;;;7.70;3.40;;;;;;;22.83;57.45;100052.52;105237;1265;74902;-74
2022/06/10 07:28:55;;;;;;;7.50;3.70;;;;;;;22.54;58.78;100051.39;105285;1265;67840;-73
2022/06/10 07:31:42;;;;;;;9.50;4.50;;;;;;;22.30;60.02;100057.49;105336;1268;74435;-70
2022/06/10 07:34:28;;;;;;;8.00;3.80;;;;;;;22.08;60.96;100062.70;105485;1265;59740;-77
2022/06/10 07:37:15;;;;;;;13.50;3.90;;;;;;;21.77;61.62;100069.08;105634;1268;60576;-75
2022/06/10 07:40:04;;;;;;;10.10;4.60;;;;;;;21.43;62.48;100069.77;105211;1265;74784;-73
2022/06/10 07:42:51;;;;;;;8.30;3.70;;;;;;;21.22;63.72;100067.31;105780;1265;68458;-72
2022/06/10 07:45:37;;;;;;;7.80;4.00;;;;;;;21.24;64.04;100068.41;106092;1266;74544;-69
2022/06/10 07:48:24;;;;;;;9.00;3.70;;;;;;;21.23;64.35;100073.35;107574;1265;59626;-71
2022/06/10 07:51:12;;;;;;;7.60;3.50;;;;;;;21.18;64.17;100072.92;107790;1265;60844;-71
2022/06/10 07:53:58;;;;;;;9.20;3.40;;;;;;;21.09;64.86;100077.56;107734;1265;73801;-72
2022/06/10 07:56:46;;;;;;;9.30;4.40;;;;;;;21.16;65.03;100078.39;107982;1264;66636;-70
2022/06/10 07:59:34;;;;;;;8.60;4.30;;;;;;;21.14;64.71;100082.19;105521;1265;72152;-71
2022/06/10 08:02:21;;;;;;;7.70;3.80;;;;;;;20.90;64.53;100089.61;105407;1265;59806;-74
2022/06/10 08:05:14;;;;;;;8.90;4.20;;;;;;;20.85;64.52;100090.38;105608;1265;59726;-74
2022/06/10 08:08:02;;;;;;;7.60;3.80;;;;;;;20.99;64.48;100088.90;105597;1265;72966;-71
2022/06/10 08:10:49;;;;;;;9.60;5.00;;;;;;;21.09;63.89;100087.88;105251;1265;68584;-73
2022/06/10 08:13:36;;;;;;;8.90;4.30;;;;;;;21.12;63.70;100084.80;105163;1265;74544;-70
2022/06/10 08:16:23;;;;;;;8.40;4.60;;;;;;;21.10;64.02;100092.46;105257;1265;59726;-73
2022/06/10 08:19:11;;;;;;;9.70;4.90;;;;;;;21.07;64.18;100088.77;105639;1265;59615;-72
2022/06/10 08:25:07;;;;;;;10.70;4.20;;;;;;;21.07;64.14;100098.58;105441;1265;67895;-75
2022/06/10 08:27:54;;;;;;;10.00;4.60;;;;;;;20.98;64.48;100106.49;105433;1265;73305;-72
2022/06/10 08:30:41;;;;;;;9.80;4.20;;;;;;;21.07;63.95;100115.69;105553;1265;59774;-72
2022/06/10 08:33:28;;;;;;;8.70;3.90;;;;;;;21.25;63.62;100113.52;105808;1265;59662;-72
2022/06/10 08:36:14;;;;;;;10.00;4.40;;;;;;;21.42;62.39;100118.23;106074;1265;73241;-76
2022/06/10 08:39:05;;;;;;;9.50;4.30;;;;;;;21.33;61.85;100123.77;105406;1265;68524;-74
2022/06/10 08:42:03;;;;;;;8.90;4.00;;;;;;;21.63;61.13;100130.01;105187;1265;72896;-70
2022/06/10 08:45:03;;;;;;;7.90;3.80;;;;;;;22.09;59.44;100127.42;105319;1265;59731;-72
2022/06/10 08:48:25;;;;;;;7.30;3.80;;;;;;;22.40;58.93;100124.98;105373;1265;61992;-76
2022/06/10 08:51:51;;;;;;;8.60;3.90;;;;;;;22.89;57.78;100131.15;105741;1265;72594;-74
2022/06/10 08:54:46;;;;;;;8.60;4.20;;;;;;;22.99;56.34;100134.77;105718;1264;66779;-71
2022/06/10 08:57:39;;;;;;;8.80;4.10;;;;;;;23.08;56.50;100138.45;105661;1265;74702;-72
2022/06/10 09:00:36;;;;;;;7.70;3.60;;;;;;;22.88;56.38;100142.70;105335;1265;59581;-69
2022/06/10 09:03:50;;;;;;;7.90;4.00;;;;;;;22.63;57.17;100153.48;105585;1265;59697;-72
2022/06/10 09:06:50;;;;;;;8.20;4.00;;;;;;;22.31;58.36;100154.79;105245;1265;73811;-72
2022/06/10 09:09:41;;;;;;;9.10;4.60;;;;;;;22.01;58.96;100156.85;105335;1265;68432;-72
2022/06/10 09:13:01;;;;;;;8.90;4.50;;;;;;;21.84;59.35;100164.33;105325;1265;72454;-72
2022/06/10 09:16:05;;;;;;;8.60;4.40;;;;;;;21.62;59.76;100179.65;105197;1265;59766;-73
2022/06/10 09:19:46;;;;;;;8.80;4.30;;;;;;;21.15;61.12;100180.77;105625;1265;62488;-71
2022/06/10 09:22:59;;;;;;;11.70;5.40;;;;;;;20.96;62.52;100181.45;105426;1265;73768;-72
2022/06/10 09:25:50;;;;;;;9.40;4.80;;;;;;;20.87;63.48;100180.35;105525;1265;69025;-73
2022/06/10 09:28:39;;;;;;;9.10;4.50;;;;;;;21.15;63.46;100178.91;105592;1265;72515;-71
2022/06/10 09:31:55;;;;;;;10.60;3.80;;;;;;;21.40;62.93;100180.42;105051;1265;60178;-72
2022/06/10 09:35:04;;;;;;;9.50;4.30;;;;;;;21.61;61.18;100180.73;105073;1265;59869;-73
2022/06/10 09:38:16;;;;;;;7.90;3.50;;;;;;;21.53;60.77;100181.79;105437;1265;73703;-72
2022/06/10 09:41:12;;;;;;;8.40;3.70;;;;;;;21.60;61.18;100183.26;105332;1264;68126;-71
2022/06/10 09:44:24;;;;;;;8.80;3.50;;;;;;;22.11;60.14;100177.34;105506;1265;73604;-71
2022/06/10 09:47:56;;;;;;;7.80;3.20;;;;;;;22.42;58.04;100177.51;105355;1265;59717;-71
2022/06/10 09:51:00;;;;;;;10.10;3.60;;;;;;;22.72;56.99;100181.52;105602;1265;60270;-74
2022/06/10 09:54:02;;;;;;;7.50;3.00;;;;;;;23.15;54.95;100181.77;105314;1265;73159;-71
2022/06/10 09:57:11;;;;;;;6.90;2.90;;;;;;;23.30;54.66;100186.55;105432;1264;69825;-72
2022/06/10 10:00:21;;;;;;;8.10;2.90;;;;;;;22.95;54.00;100186.09;105203;1265;74501;-74
2022/06/10 10:03:56;;;;;;;7.60;3.10;;;;;;;22.69;55.05;100193.91;105339;1265;59734;-72
2022/06/10 10:06:54;;;;;;;7.40;3.00;;;;;;;23.13;54.17;100190.78;105156;1265;62070;-73
2022/06/10 10:10:18;;;;;;;6.50;2.70;;;;;;;23.47;52.97;100195.17;105122;1265;74714;-71
2022/06/10 10:13:26;;;;;;;6.10;2.40;;;;;;;23.76;51.60;100193.34;105454;1265;68617;-71
2022/06/10 10:16:58;;;;;;;7.50;2.20;;;;;;;24.33;49.92;100192.02;105676;1265;74530;-71
2022/06/10 10:19:54;;;;;;;6.00;2.40;;;;;;;24.33;49.36;100192.61;105085;1265;59869;-71
2022/06/10 10:23:15;;;;;;;6.60;2.60;;;;;;;24.52;49.04;100192.00;105191;1265;60333;-72
2022/06/10 10:26:28;;;;;;;7.00;2.10;;;;;;;24.50;49.79;100197.48;105189;1265;73565;-70
2022/06/10 10:29:36;;;;;;;6.20;2.20;;;;;;;25.17;47.78;100196.59;105097;1265;69601;-71
2022/06/10 10:32:37;;;;;;;6.90;2.20;;;;;;;25.60;45.88;100202.77;105323;1265;73390;-72
2022/06/10 10:35:36;;;;;;;6.10;2.10;;;;;;;25.39;46.40;100207.48;105257;1268;59672;-72
2022/06/10 10:38:32;;;;;;;5.80;2.00;;;;;;;25.87;45.27;100204.20;105082;1265;61990;-71
2022/06/10 10:41:33;;;;;;;7.10;2.30;;;;;;;27.25;43.21;100193.17;105339;1264;74963;-72
2022/06/10 10:44:38;;;;;;;6.20;1.60;;;;;;;27.28;42.65;100196.58;105236;1268;67516;-72
2022/06/10 10:47:28;;;;;;;5.90;1.40;;;;;;;26.66;42.14;100210.51;105647;1265;73423;-72
2022/06/10 10:50:39;;;;;;;5.60;1.50;;;;;;;26.10;42.48;100215.41;105123;1265;60077;-70
2022/06/10 10:53:42;;;;;;;6.50;1.80;;;;;;;27.08;40.79;100202.02;104988;1265;59702;-73
2022/06/10 10:56:38;;;;;;;6.20;1.60;;;;;;;27.56;40.67;100203.42;104988;1268;73093;-71
2022/06/10 10:59:40;;;;;;;5.50;1.70;;;;;;;26.97;42.01;100206.82;105396;1267;68670;-72
2022/06/10 11:02:37;;;;;;;6.20;1.50;;;;;;;26.21;43.25;100219.22;105611;1265;72762;-70
2022/06/10 11:05:46;;;;;;;5.50;1.70;;;;;;;25.49;44.65;100223.66;105209;1268;59736;-70
2022/06/10 11:08:37;;;;;;;4.70;1.30;;;;;;;24.74;45.24;100220.95;105008;1268;59745;-72
2022/06/10 11:11:36;;;;;;;7.10;1.60;;;;;;;24.11;46.58;100224.14;105197;1267;70893;-73
2022/06/10 11:14:37;;;;;;;5.30;1.40;;;;;;;24.21;46.68;100228.98;105141;1268;69841;-71
2022/06/10 11:17:26;;;;;;;6.30;1.60;;;;;;;24.22;46.22;100222.23;105177;1268;74543;-74
2022/06/10 11:20:36;;;;;;;4.80;1.10;;;;;;;23.90;46.57;100231.98;105269;1268;59717;-74
2022/06/10 11:23:27;;;;;;;5.20;1.20;;;;;;;23.45;48.09;100229.66;105012;1267;59654;-72
2022/06/10 11:26:22;;;;;;;5.20;1.30;;;;;;;23.12;48.75;100226.69;105185;1267;73814;-72
2022/06/10 11:29:12;;;;;;;5.10;1.30;;;;;;;22.94;49.44;100230.04;104854;1268;68506;-71
2022/06/10 11:32:06;;;;;;;5.40;1.60;;;;;;;22.88;49.17;100228.48;104908;1268;72803;-69
2022/06/10 11:35:00;;;;;;;5.10;1.20;;;;;;;22.89;49.08;100227.91;105513;1265;59771;-71
2022/06/10 11:37:52;;;;;;;4.60;1.20;;;;;;;23.04;49.06;100229.53;105276;1265;62141;-62
2022/06/10 11:40:47;;;;;;;4.60;1.10;;;;;;;23.31;49.36;100233.16;105422;1265;74546;-65
2022/06/10 11:43:48;;;;;;;6.20;1.50;;;;;;;23.74;48.34;100231.40;105376;1265;69547;-65
2022/06/10 11:47:02;;;;;;;4.70;1.10;;;;;;;23.98;46.99;100229.33;105205;1265;74781;-67
2022/06/10 11:49:58;;;;;;;5.00;1.10;;;;;;;23.85;46.95;100237.86;105343;1265;59778;-64
2022/06/10 11:53:06;;;;;;;6.30;1.40;;;;;;;23.60;47.56;100242.42;105254;1265;59656;-64
2022/06/10 11:59:42;;;;;;;6.30;1.50;;;;;;;23.35;48.71;100243.64;105497;1265;74670;-64
2022/06/10 12:02:22;;;;;;;5.90;1.80;;;;;;;22.95;50.63;100248.91;105069;1265;72220;-63
2022/06/10 12:05:14;;;;;;;5.10;1.30;;;;;;;22.90;50.75;100255.71;105055;1268;59615;-63
2022/06/10 12:08:29;;;;;;;5.40;1.80;;;;;;;22.74;50.19;100257.95;105152;1265;60861;-62
2022/06/10 12:11:39;;;;;;;5.70;1.60;;;;;;;22.39;50.98;100267.33;105445;1265;75124;-64
2022/06/10 12:14:34;;;;;;;5.80;1.70;;;;;;;22.16;51.96;100261.29;105600;1264;68561;-62
2022/06/10 12:17:41;;;;;;;6.70;1.60;;;;;;;22.21;52.23;100269.52;105168;1265;73308;-61
2022/06/10 12:20:53;;;;;;;7.00;1.50;;;;;;;22.31;52.39;100270.80;105206;1265;59771;-64
2022/06/10 12:23:43;;;;;;;5.40;1.50;;;;;;;22.46;52.08;100260.69;105288;1265;59646;-61
2022/06/10 12:26:47;;;;;;;6.80;1.70;;;;;;;22.64;51.05;100260.79;105345;1265;73787;-61
2022/06/10 12:29:39;;;;;;;5.80;1.70;;;;;;;22.67;50.90;100267.69;105153;1265;68485;-61
2022/06/10 12:33:04;;;;;;;6.00;1.70;;;;;;;22.64;50.35;100260.69;105237;1265;74239;-64
2022/06/10 12:35:54;;;;;;;6.30;1.50;;;;;;;22.46;50.34;100268.95;105543;1265;59529;-62
2022/06/10 12:38:44;;;;;;;5.40;1.60;;;;;;;22.35;51.04;100270.17;105358;1265;60088;-63
2022/06/10 12:41:41;;;;;;;6.70;1.80;;;;;;;22.40;50.98;100267.25;105184;1265;73509;-63
2022/06/10 12:44:34;;;;;;;6.60;1.80;;;;;;;22.54;50.83;100263.28;105269;1265;69585;-62
2022/06/10 12:47:38;;;;;;;5.60;1.60;;;;;;;22.68;50.98;100262.77;105260;1265;73287;-62
2022/06/10 12:50:35;;;;;;;5.10;1.60;;;;;;;22.80;50.26;100262.94;105206;1265;59771;-62
2022/06/10 12:53:58;;;;;;;6.30;1.60;;;;;;;22.84;49.36;100267.14;105184;1265;60545;-62
2022/06/10 12:56:45;;;;;;;5.00;1.60;;;;;;;22.71;49.04;100263.48;105700;1265;72501;-64
2022/06/10 12:59:32;;;;;;;6.20;1.60;;;;;;;22.69;48.44;100262.09;105389;1265;69636;-62
2022/06/10 13:02:52;;;;;;;5.60;1.50;;;;;;;22.76;48.17;100264.39;105076;1265;74347;-63
2022/06/10 13:05:48;;;;;;;5.40;1.50;;;;;;;22.89;48.56;100262.14;105292;1265;59726;-63
2022/06/10 13:08:49;;;;;;;5.20;1.60;;;;;;;22.88;48.97;100270.09;105318;1265;59956;-64
2022/06/10 13:11:44;;;;;;;5.00;1.70;;;;;;;22.85;49.03;100273.74;105052;1268;74078;-62
2022/06/10 13:14:34;;;;;;;4.70;1.20;;;;;;;22.76;48.67;100275.63;105421;1265;68784;-63
2022/06/10 13:17:25;;;;;;;4.90;1.30;;;;;;;22.85;48.06;100272.23;105332;1265;72364;-64
2022/06/10 13:20:18;;;;;;;6.10;1.50;;;;;;;23.08;47.67;100270.81;105315;1265;59674;-61
2022/06/10 13:23:13;;;;;;;6.00;1.40;;;;;;;23.18;47.55;100273.70;105071;1265;59813;-63
2022/06/10 13:26:05;;;;;;;6.90;1.40;;;;;;;22.87;47.78;100279.23;105315;1265;73480;-61
2022/06/10 13:29:04;;;;;;;6.40;1.40;;;;;;;22.74;48.48;100276.52;105172;1265;69615;-65
2022/06/10 13:31:57;;;;;;;5.80;1.40;;;;;;;22.56;49.01;100273.51;105059;1265;73952;-62
2022/06/10 13:34:54;;;;;;;5.00;1.40;;;;;;;22.46;48.72;100276.07;105109;1265;59643;-67
2022/06/10 13:37:40;;;;;;;5.50;1.40;;;;;;;22.37;48.52;100284.00;104971;1268;59892;-65